sensor_id;sensor_type;location;lat;lon;timestamp;P1;durP1;ratioP1;P2;durP2;ratioP2
41719;SDS011;27405;53.316;-6.294;2024-02-15T00:01:00;2.88;;;1.15;;
41719;SDS011;27405;53.316;-6.294;2024-02-15T00:03:25;3.55;;;1.05;;
41719;SDS011;27405;53.316;-6.294;2024-02-15T00:05:51;1.60;;;0.93;;
41719;SDS011;27405;53.316;-6.294;2024-02-15T00:08:17;1.88;;;0.95;;
41719;SDS011;27405;53.316;-6.294;2024-02-15T00:10:45;3.35;;;0.70;;
41719;SDS011;27405;53.316;-6.294;2024-02-15T00:13:11;1.35;;;0.57;;
41719;SDS011;27405;53.316;-6.294;2024-02-15T00:15:37;1.75;;;0.70;;
41719;SDS011;27405;53.316;-6.294;2024-02-15T00:18:03;0.52;;;0.50;;
41719;SDS011;27405;53.316;-6.294;2024-02-15T00:20:29;0.65;;;0.55;;
41719;SDS011;27405;53.316;-6.294;2024-02-15T00:22:54;1.80;;;0.70;;
41719;SDS011;27405;53.316;-6.294;2024-02-15T00:25:21;4.32;;;0.70;;
41719;SDS011;27405;53.316;-6.294;2024-02-15T00:27:47;0.93;;;0.60;;
41719;SDS011;27405;53.316;-6.294;2024-02-15T00:30:12;0.63;;;0.52;;
41719;SDS011;27405;53.316;-6.294;2024-02-15T00:32:38;0.68;;;0.60;;
41719;SDS011;27405;53.316;-6.294;2024-02-15T00:35:04;1.45;;;0.60;;
41719;SDS011;27405;53.316;-6.294;2024-02-15T00:37:34;2.80;;;0.60;;
41719;SDS011;27405;53.316;-6.294;2024-02-15T00:40:00;0.50;;;0.47;;
41719;SDS011;27405;53.316;-6.294;2024-02-15T00:42:29;3.85;;;0.70;;
41719;SDS011;27405;53.316;-6.294;2024-02-15T00:44:56;1.83;;;0.70;;
41719;SDS011;27405;53.316;-6.294;2024-02-15T00:47:22;2.75;;;0.88;;
41719;SDS011;27405;53.316;-6.294;2024-02-15T00:49:48;1.55;;;0.50;;
41719;SDS011;27405;53.316;-6.294;2024-02-15T00:52:15;1.67;;;0.65;;
41719;SDS011;27405;53.316;-6.294;2024-02-15T00:54:43;1.07;;;0.53;;
41719;SDS011;27405;53.316;-6.294;2024-02-15T00:57:08;1.85;;;0.85;;
41719;SDS011;27405;53.316;-6.294;2024-02-15T00:59:34;0.73;;;0.40;;
41719;SDS011;27405;53.316;-6.294;2024-02-15T01:02:01;1.95;;;0.77;;
41719;SDS011;27405;53.316;-6.294;2024-02-15T01:04:27;4.57;;;0.95;;
41719;SDS011;27405;53.316;-6.294;2024-02-15T01:06:53;2.47;;;0.85;;
41719;SDS011;27405;53.316;-6.294;2024-02-15T01:09:19;4.75;;;0.82;;
41719;SDS011;27405;53.316;-6.294;2024-02-15T01:11:46;3.85;;;0.93;;
41719;SDS011;27405;53.316;-6.294;2024-02-15T01:14:12;4.57;;;1.23;;
41719;SDS011;27405;53.316;-6.294;2024-02-15T01:16:38;8.95;;;1.40;;
41719;SDS011;27405;53.316;-6.294;2024-02-15T01:19:04;4.50;;;1.10;;
41719;SDS011;27405;53.316;-6.294;2024-02-15T01:21:30;9.00;;;1.83;;
41719;SDS011;27405;53.316;-6.294;2024-02-15T01:23:58;6.20;;;1.40;;
41719;SDS011;27405;53.316;-6.294;2024-02-15T01:26:25;8.18;;;1.50;;
41719;SDS011;27405;53.316;-6.294;2024-02-15T01:28:52;5.65;;;1.17;;
41719;SDS011;27405;53.316;-6.294;2024-02-15T01:31:18;8.63;;;1.90;;
41719;SDS011;27405;53.316;-6.294;2024-02-15T01:33:44;8.52;;;1.70;;
41719;SDS011;27405;53.316;-6.294;2024-02-15T01:36:15;9.07;;;1.75;;
41719;SDS011;27405;53.316;-6.294;2024-02-15T01:38:42;11.70;;;1.88;;
41719;SDS011;27405;53.316;-6.294;2024-02-15T01:41:08;9.00;;;2.03;;
41719;SDS011;27405;53.316;-6.294;2024-02-15T01:43:37;10.90;;;2.30;;
41719;SDS011;27405;53.316;-6.294;2024-02-15T01:46:08;6.70;;;1.55;;
41719;SDS011;27405;53.316;-6.294;2024-02-15T01:48:39;8.77;;;1.80;;
41719;SDS011;27405;53.316;-6.294;2024-02-15T01:51:07;9.32;;;1.98;;
41719;SDS011;27405;53.316;-6.294;2024-02-15T01:53:35;8.43;;;1.50;;
41719;SDS011;27405;53.316;-6.294;2024-02-15T01:56:01;6.60;;;1.38;;
41719;SDS011;27405;53.316;-6.294;2024-02-15T01:58:27;7.93;;;1.40;;
41719;SDS011;27405;53.316;-6.294;2024-02-15T02:00:57;4.57;;;1.27;;
41719;SDS011;27405;53.316;-6.294;2024-02-15T02:03:24;8.73;;;1.48;;
41719;SDS011;27405;53.316;-6.294;2024-02-15T02:05:50;8.63;;;1.60;;
41719;SDS011;27405;53.316;-6.294;2024-02-15T02:08:16;3.53;;;1.20;;
41719;SDS011;27405;53.316;-6.294;2024-02-15T02:10:41;8.38;;;1.45;;
41719;SDS011;27405;53.316;-6.294;2024-02-15T02:13:08;5.72;;;1.23;;
41719;SDS011;27405;53.316;-6.294;2024-02-15T02:15:34;6.88;;;1.50;;
41719;SDS011;27405;53.316;-6.294;2024-02-15T02:18:02;9.02;;;1.55;;
41719;SDS011;27405;53.316;-6.294;2024-02-15T02:20:31;3.90;;;1.23;;
41719;SDS011;27405;53.316;-6.294;2024-02-15T02:23:18;4.10;;;0.88;;
41719;SDS011;27405;53.316;-6.294;2024-02-15T02:25:45;5.15;;;1.08;;
41719;SDS011;27405;53.316;-6.294;2024-02-15T02:28:14;3.33;;;0.75;;
41719;SDS011;27405;53.316;-6.294;2024-02-15T02:30:41;2.63;;;1.00;;
41719;SDS011;27405;53.316;-6.294;2024-02-15T02:33:13;1.45;;;0.60;;
41719;SDS011;27405;53.316;-6.294;2024-02-15T02:35:43;2.33;;;0.90;;
41719;SDS011;27405;53.316;-6.294;2024-02-15T02:38:09;2.50;;;0.70;;
41719;SDS011;27405;53.316;-6.294;2024-02-15T02:40:35;5.07;;;1.08;;
41719;SDS011;27405;53.316;-6.294;2024-02-15T02:43:01;3.13;;;0.50;;
41719;SDS011;27405;53.316;-6.294;2024-02-15T02:45:27;1.98;;;0.50;;
41719;SDS011;27405;53.316;-6.294;2024-02-15T02:47:53;3.13;;;0.60;;
41719;SDS011;27405;53.316;-6.294;2024-02-15T02:50:19;2.63;;;0.55;;
41719;SDS011;27405;53.316;-6.294;2024-02-15T02:52:46;3.60;;;1.15;;
41719;SDS011;27405;53.316;-6.294;2024-02-15T02:55:13;1.95;;;0.80;;
41719;SDS011;27405;53.316;-6.294;2024-02-15T02:57:39;1.02;;;0.60;;
41719;SDS011;27405;53.316;-6.294;2024-02-15T03:00:05;18.88;;;1.23;;
41719;SDS011;27405;53.316;-6.294;2024-02-15T03:02:42;2.85;;;0.70;;
41719;SDS011;27405;53.316;-6.294;2024-02-15T03:05:11;2.15;;;0.80;;
41719;SDS011;27405;53.316;-6.294;2024-02-15T03:07:37;1.50;;;0.60;;
41719;SDS011;27405;53.316;-6.294;2024-02-15T03:10:06;2.47;;;0.85;;
41719;SDS011;27405;53.316;-6.294;2024-02-15T03:12:33;1.80;;;0.80;;
41719;SDS011;27405;53.316;-6.294;2024-02-15T03:15:01;2.35;;;0.95;;
41719;SDS011;27405;53.316;-6.294;2024-02-15T03:17:30;1.58;;;0.60;;
41719;SDS011;27405;53.316;-6.294;2024-02-15T03:19:58;1.80;;;0.77;;
41719;SDS011;27405;53.316;-6.294;2024-02-15T03:22:25;4.85;;;1.00;;
41719;SDS011;27405;53.316;-6.294;2024-02-15T03:24:54;2.28;;;0.90;;
41719;SDS011;27405;53.316;-6.294;2024-02-15T03:27:20;3.60;;;1.15;;
41719;SDS011;27405;53.316;-6.294;2024-02-15T03:29:48;2.00;;;1.00;;
41719;SDS011;27405;53.316;-6.294;2024-02-15T03:32:14;3.38;;;1.02;;
41719;SDS011;27405;53.316;-6.294;2024-02-15T03:34:39;3.30;;;1.23;;
41719;SDS011;27405;53.316;-6.294;2024-02-15T03:37:05;2.60;;;0.90;;
41719;SDS011;27405;53.316;-6.294;2024-02-15T03:39:31;2.95;;;0.80;;
41719;SDS011;27405;53.316;-6.294;2024-02-15T03:41:58;2.78;;;1.00;;
41719;SDS011;27405;53.316;-6.294;2024-02-15T03:44:23;4.22;;;1.00;;
41719;SDS011;27405;53.316;-6.294;2024-02-15T03:46:51;3.10;;;1.00;;
41719;SDS011;27405;53.316;-6.294;2024-02-15T03:49:18;0.85;;;0.70;;
41719;SDS011;27405;53.316;-6.294;2024-02-15T03:51:44;1.88;;;0.90;;
41719;SDS011;27405;53.316;-6.294;2024-02-15T03:54:10;3.30;;;0.98;;
41719;SDS011;27405;53.316;-6.294;2024-02-15T03:56:36;3.22;;;1.02;;
41719;SDS011;27405;53.316;-6.294;2024-02-15T03:59:11;2.58;;;0.98;;
41719;SDS011;27405;53.316;-6.294;2024-02-15T04:01:37;3.42;;;1.13;;
41719;SDS011;27405;53.316;-6.294;2024-02-15T04:04:03;5.15;;;1.10;;
41719;SDS011;27405;53.316;-6.294;2024-02-15T04:06:29;3.78;;;1.10;;
41719;SDS011;27405;53.316;-6.294;2024-02-15T04:08:56;2.92;;;1.10;;
41719;SDS011;27405;53.316;-6.294;2024-02-15T04:11:22;4.45;;;1.13;;
41719;SDS011;27405;53.316;-6.294;2024-02-15T04:13:48;3.10;;;1.20;;
41719;SDS011;27405;53.316;-6.294;2024-02-15T04:16:13;2.90;;;1.00;;
41719;SDS011;27405;53.316;-6.294;2024-02-15T04:18:39;4.03;;;1.05;;
41719;SDS011;27405;53.316;-6.294;2024-02-15T04:21:07;2.33;;;1.05;;
41719;SDS011;27405;53.316;-6.294;2024-02-15T04:23:33;3.67;;;1.13;;
41719;SDS011;27405;53.316;-6.294;2024-02-15T04:25:59;3.05;;;1.10;;
41719;SDS011;27405;53.316;-6.294;2024-02-15T04:28:25;4.70;;;1.30;;
41719;SDS011;27405;53.316;-6.294;2024-02-15T04:30:52;1.88;;;0.85;;
41719;SDS011;27405;53.316;-6.294;2024-02-15T04:33:18;4.00;;;1.23;;
41719;SDS011;27405;53.316;-6.294;2024-02-15T04:35:43;3.22;;;0.80;;
41719;SDS011;27405;53.316;-6.294;2024-02-15T04:38:10;3.80;;;1.13;;
41719;SDS011;27405;53.316;-6.294;2024-02-15T04:40:35;1.70;;;0.90;;
41719;SDS011;27405;53.316;-6.294;2024-02-15T04:43:03;1.75;;;1.10;;
41719;SDS011;27405;53.316;-6.294;2024-02-15T04:45:29;5.80;;;1.55;;
41719;SDS011;27405;53.316;-6.294;2024-02-15T04:47:56;5.03;;;1.25;;
41719;SDS011;27405;53.316;-6.294;2024-02-15T04:50:22;3.40;;;1.23;;
41719;SDS011;27405;53.316;-6.294;2024-02-15T04:52:47;4.07;;;1.55;;
41719;SDS011;27405;53.316;-6.294;2024-02-15T04:55:15;2.30;;;1.20;;
41719;SDS011;27405;53.316;-6.294;2024-02-15T04:57:42;3.30;;;1.15;;
41719;SDS011;27405;53.316;-6.294;2024-02-15T05:00:08;1.08;;;0.90;;
41719;SDS011;27405;53.316;-6.294;2024-02-15T05:02:37;3.70;;;1.30;;
41719;SDS011;27405;53.316;-6.294;2024-02-15T05:05:06;1.80;;;1.23;;
41719;SDS011;27405;53.316;-6.294;2024-02-15T05:07:33;4.95;;;0.90;;
41719;SDS011;27405;53.316;-6.294;2024-02-15T05:12:27;1.95;;;1.25;;
41719;SDS011;27405;53.316;-6.294;2024-02-15T05:14:53;3.13;;;1.20;;
41719;SDS011;27405;53.316;-6.294;2024-02-15T05:17:18;2.33;;;1.05;;
41719;SDS011;27405;53.316;-6.294;2024-02-15T05:19:44;4.00;;;1.40;;
41719;SDS011;27405;53.316;-6.294;2024-02-15T05:22:10;3.13;;;1.40;;
41719;SDS011;27405;53.316;-6.294;2024-02-15T05:24:36;2.67;;;1.30;;
41719;SDS011;27405;53.316;-6.294;2024-02-15T05:27:04;3.60;;;2.00;;
41719;SDS011;27405;53.316;-6.294;2024-02-15T05:29:29;17.48;;;6.85;;
41719;SDS011;27405;53.316;-6.294;2024-02-15T05:31:59;19.90;;;5.25;;
41719;SDS011;27405;53.316;-6.294;2024-02-15T05:34:25;6.85;;;2.90;;
41719;SDS011;27405;53.316;-6.294;2024-02-15T05:36:51;5.43;;;2.90;;
41719;SDS011;27405;53.316;-6.294;2024-02-15T05:39:17;5.07;;;2.08;;
41719;SDS011;27405;53.316;-6.294;2024-02-15T05:41:46;4.60;;;1.70;;
41719;SDS011;27405;53.316;-6.294;2024-02-15T05:44:12;5.55;;;1.90;;
41719;SDS011;27405;53.316;-6.294;2024-02-15T05:46:44;7.80;;;2.28;;
41719;SDS011;27405;53.316;-6.294;2024-02-15T05:49:10;7.57;;;2.42;;
41719;SDS011;27405;53.316;-6.294;2024-02-15T05:51:40;5.38;;;2.40;;
41719;SDS011;27405;53.316;-6.294;2024-02-15T05:54:06;7.40;;;2.75;;
41719;SDS011;27405;53.316;-6.294;2024-02-15T05:56:32;6.10;;;1.98;;
41719;SDS011;27405;53.316;-6.294;2024-02-15T05:58:58;5.95;;;2.08;;
41719;SDS011;27405;53.316;-6.294;2024-02-15T06:01:23;6.90;;;2.40;;
41719;SDS011;27405;53.316;-6.294;2024-02-15T06:03:49;6.65;;;2.72;;
41719;SDS011;27405;53.316;-6.294;2024-02-15T06:06:15;5.05;;;2.05;;
41719;SDS011;27405;53.316;-6.294;2024-02-15T06:08:41;4.82;;;2.30;;
41719;SDS011;27405;53.316;-6.294;2024-02-15T06:11:07;3.95;;;1.70;;
41719;SDS011;27405;53.316;-6.294;2024-02-15T06:13:34;4.88;;;1.67;;
41719;SDS011;27405;53.316;-6.294;2024-02-15T06:16:00;4.35;;;1.70;;
41719;SDS011;27405;53.316;-6.294;2024-02-15T06:18:26;0.98;;;0.80;;
41719;SDS011;27405;53.316;-6.294;2024-02-15T06:20:57;2.10;;;1.10;;
41719;SDS011;27405;53.316;-6.294;2024-02-15T06:23:24;1.58;;;0.75;;
41719;SDS011;27405;53.316;-6.294;2024-02-15T06:25:52;0.70;;;0.70;;
41719;SDS011;27405;53.316;-6.294;2024-02-15T06:28:19;1.63;;;0.50;;
41719;SDS011;27405;53.316;-6.294;2024-02-15T06:31:04;2.10;;;0.65;;
41719;SDS011;27405;53.316;-6.294;2024-02-15T06:33:48;2.42;;;1.17;;
41719;SDS011;27405;53.316;-6.294;2024-02-15T06:38:59;3.13;;;1.20;;
41719;SDS011;27405;53.316;-6.294;2024-02-15T06:41:43;1.20;;;0.98;;
41719;SDS011;27405;53.316;-6.294;2024-02-15T06:44:08;2.55;;;0.80;;
41719;SDS011;27405;53.316;-6.294;2024-02-15T06:46:34;0.50;;;0.40;;
41719;SDS011;27405;53.316;-6.294;2024-02-15T06:49:00;0.65;;;0.65;;
41719;SDS011;27405;53.316;-6.294;2024-02-15T06:51:26;2.42;;;0.60;;
41719;SDS011;27405;53.316;-6.294;2024-02-15T06:53:52;0.28;;;0.20;;
41719;SDS011;27405;53.316;-6.294;2024-02-15T06:56:20;2.40;;;0.55;;
41719;SDS011;27405;53.316;-6.294;2024-02-15T06:58:47;2.70;;;0.63;;
41719;SDS011;27405;53.316;-6.294;2024-02-15T07:01:13;1.10;;;0.50;;
41719;SDS011;27405;53.316;-6.294;2024-02-15T07:03:41;0.95;;;0.47;;
41719;SDS011;27405;53.316;-6.294;2024-02-15T07:06:10;2.28;;;0.47;;
41719;SDS011;27405;53.316;-6.294;2024-02-15T07:08:38;0.40;;;0.40;;
41719;SDS011;27405;53.316;-6.294;2024-02-15T07:11:06;2.15;;;0.45;;
41719;SDS011;27405;53.316;-6.294;2024-02-15T07:13:34;0.30;;;0.30;;
41719;SDS011;27405;53.316;-6.294;2024-02-15T07:16:01;0.63;;;0.28;;
41719;SDS011;27405;53.316;-6.294;2024-02-15T07:18:27;2.72;;;0.55;;
41719;SDS011;27405;53.316;-6.294;2024-02-15T07:20:52;3.05;;;0.40;;
41719;SDS011;27405;53.316;-6.294;2024-02-15T07:23:18;0.90;;;0.77;;
41719;SDS011;27405;53.316;-6.294;2024-02-15T07:25:44;2.17;;;1.00;;
41719;SDS011;27405;53.316;-6.294;2024-02-15T07:28:13;0.70;;;0.60;;
41719;SDS011;27405;53.316;-6.294;2024-02-15T07:30:39;1.30;;;0.60;;
41719;SDS011;27405;53.316;-6.294;2024-02-15T07:33:05;2.28;;;0.55;;
41719;SDS011;27405;53.316;-6.294;2024-02-15T07:35:32;1.25;;;0.80;;
41719;SDS011;27405;53.316;-6.294;2024-02-15T07:37:58;0.70;;;0.70;;
41719;SDS011;27405;53.316;-6.294;2024-02-15T07:40:26;1.50;;;0.90;;
41719;SDS011;27405;53.316;-6.294;2024-02-15T07:42:56;0.50;;;0.50;;
41719;SDS011;27405;53.316;-6.294;2024-02-15T07:45:22;1.65;;;0.68;;
41719;SDS011;27405;53.316;-6.294;2024-02-15T07:47:48;2.08;;;0.68;;
41719;SDS011;27405;53.316;-6.294;2024-02-15T07:50:17;2.25;;;1.10;;
41719;SDS011;27405;53.316;-6.294;2024-02-15T07:52:48;1.75;;;1.05;;
41719;SDS011;27405;53.316;-6.294;2024-02-15T07:55:14;1.83;;;1.20;;
41719;SDS011;27405;53.316;-6.294;2024-02-15T07:57:40;3.92;;;1.30;;
41719;SDS011;27405;53.316;-6.294;2024-02-15T08:00:06;2.72;;;1.20;;
41719;SDS011;27405;53.316;-6.294;2024-02-15T08:02:39;2.00;;;1.00;;
41719;SDS011;27405;53.316;-6.294;2024-02-15T08:05:08;1.92;;;1.02;;
41719;SDS011;27405;53.316;-6.294;2024-02-15T08:07:36;5.53;;;1.60;;
41719;SDS011;27405;53.316;-6.294;2024-02-15T08:10:04;1.38;;;0.98;;
41719;SDS011;27405;53.316;-6.294;2024-02-15T08:12:33;0.85;;;0.68;;
41719;SDS011;27405;53.316;-6.294;2024-02-15T08:14:59;1.58;;;0.68;;
41719;SDS011;27405;53.316;-6.294;2024-02-15T08:17:24;1.58;;;0.70;;
41719;SDS011;27405;53.316;-6.294;2024-02-15T08:19:51;0.40;;;0.40;;
41719;SDS011;27405;53.316;-6.294;2024-02-15T08:22:17;0.25;;;0.20;;
41719;SDS011;27405;53.316;-6.294;2024-02-15T08:24:44;0.22;;;0.20;;
41719;SDS011;27405;53.316;-6.294;2024-02-15T08:27:10;0.17;;;0.17;;
41719;SDS011;27405;53.316;-6.294;2024-02-15T08:29:36;0.20;;;0.20;;
41719;SDS011;27405;53.316;-6.294;2024-02-15T08:32:02;0.52;;;0.25;;
41719;SDS011;27405;53.316;-6.294;2024-02-15T08:34:29;0.95;;;0.30;;
41719;SDS011;27405;53.316;-6.294;2024-02-15T08:36:55;2.47;;;0.82;;
41719;SDS011;27405;53.316;-6.294;2024-02-15T08:39:23;3.55;;;0.80;;
41719;SDS011;27405;53.316;-6.294;2024-02-15T08:41:50;4.03;;;1.20;;
41719;SDS011;27405;53.316;-6.294;2024-02-15T08:44:16;0.40;;;0.40;;
41719;SDS011;27405;53.316;-6.294;2024-02-15T08:46:44;1.10;;;0.57;;
41719;SDS011;27405;53.316;-6.294;2024-02-15T08:49:09;1.10;;;0.45;;
41719;SDS011;27405;53.316;-6.294;2024-02-15T08:51:38;1.25;;;0.30;;
41719;SDS011;27405;53.316;-6.294;2024-02-15T08:54:04;0.52;;;0.38;;
41719;SDS011;27405;53.316;-6.294;2024-02-15T08:56:30;1.70;;;0.50;;
41719;SDS011;27405;53.316;-6.294;2024-02-15T08:58:55;0.77;;;0.38;;
41719;SDS011;27405;53.316;-6.294;2024-02-15T09:01:22;3.00;;;0.50;;
41719;SDS011;27405;53.316;-6.294;2024-02-15T09:03:49;2.83;;;0.80;;
41719;SDS011;27405;53.316;-6.294;2024-02-15T09:06:14;3.58;;;1.00;;
41719;SDS011;27405;53.316;-6.294;2024-02-15T09:08:40;1.38;;;0.43;;
41719;SDS011;27405;53.316;-6.294;2024-02-15T09:11:06;1.52;;;0.50;;
41719;SDS011;27405;53.316;-6.294;2024-02-15T09:13:36;0.22;;;0.22;;
41719;SDS011;27405;53.316;-6.294;2024-02-15T09:16:02;0.40;;;0.40;;
41719;SDS011;27405;53.316;-6.294;2024-02-15T09:18:28;0.60;;;0.40;;
41719;SDS011;27405;53.316;-6.294;2024-02-15T09:20:54;0.85;;;0.40;;
41719;SDS011;27405;53.316;-6.294;2024-02-15T09:23:21;1.42;;;0.43;;
41719;SDS011;27405;53.316;-6.294;2024-02-15T09:25:48;1.23;;;0.40;;
41719;SDS011;27405;53.316;-6.294;2024-02-15T09:28:18;2.63;;;0.40;;
41719;SDS011;27405;53.316;-6.294;2024-02-15T09:30:47;0.63;;;0.50;;
41719;SDS011;27405;53.316;-6.294;2024-02-15T09:33:13;2.58;;;0.50;;
41719;SDS011;27405;53.316;-6.294;2024-02-15T09:35:39;0.68;;;0.40;;
41719;SDS011;27405;53.316;-6.294;2024-02-15T09:38:05;1.40;;;0.45;;
41719;SDS011;27405;53.316;-6.294;2024-02-15T09:40:31;0.90;;;0.35;;
41719;SDS011;27405;53.316;-6.294;2024-02-15T09:42:57;1.33;;;0.50;;
41719;SDS011;27405;53.316;-6.294;2024-02-15T09:45:24;0.75;;;0.40;;
41719;SDS011;27405;53.316;-6.294;2024-02-15T09:47:50;0.47;;;0.38;;
41719;SDS011;27405;53.316;-6.294;2024-02-15T09:50:18;2.05;;;0.82;;
41719;SDS011;27405;53.316;-6.294;2024-02-15T09:52:44;0.70;;;0.65;;
41719;SDS011;27405;53.316;-6.294;2024-02-15T09:57:39;1.63;;;0.63;;
41719;SDS011;27405;53.316;-6.294;2024-02-15T10:00:09;1.15;;;0.40;;
41719;SDS011;27405;53.316;-6.294;2024-02-15T10:02:50;0.93;;;0.50;;
41719;SDS011;27405;53.316;-6.294;2024-02-15T10:05:18;2.05;;;0.45;;
41719;SDS011;27405;53.316;-6.294;2024-02-15T10:07:44;0.75;;;0.45;;
41719;SDS011;27405;53.316;-6.294;2024-02-15T10:10:14;1.10;;;0.52;;
41719;SDS011;27405;53.316;-6.294;2024-02-15T10:12:44;1.33;;;0.50;;
41719;SDS011;27405;53.316;-6.294;2024-02-15T10:15:14;0.55;;;0.50;;
41719;SDS011;27405;53.316;-6.294;2024-02-15T10:17:55;1.17;;;0.40;;
41719;SDS011;27405;53.316;-6.294;2024-02-15T10:20:22;1.10;;;0.68;;
41719;SDS011;27405;53.316;-6.294;2024-02-15T10:25:28;3.65;;;0.70;;
41719;SDS011;27405;53.316;-6.294;2024-02-15T10:28:04;1.08;;;0.50;;
41719;SDS011;27405;53.316;-6.294;2024-02-15T10:30:32;0.80;;;0.60;;
41719;SDS011;27405;53.316;-6.294;2024-02-15T10:33:02;2.55;;;0.80;;
41719;SDS011;27405;53.316;-6.294;2024-02-15T10:35:28;3.28;;;0.70;;
41719;SDS011;27405;53.316;-6.294;2024-02-15T10:38:04;3.00;;;0.90;;
41719;SDS011;27405;53.316;-6.294;2024-02-15T10:40:35;0.93;;;0.75;;
41719;SDS011;27405;53.316;-6.294;2024-02-15T10:43:04;4.03;;;1.00;;
41719;SDS011;27405;53.316;-6.294;2024-02-15T10:45:34;2.22;;;0.50;;
41719;SDS011;27405;53.316;-6.294;2024-02-15T10:48:02;1.25;;;0.45;;
41719;SDS011;27405;53.316;-6.294;2024-02-15T10:50:30;0.93;;;0.50;;
41719;SDS011;27405;53.316;-6.294;2024-02-15T10:52:58;1.42;;;1.17;;
41719;SDS011;27405;53.316;-6.294;2024-02-15T10:57:55;0.47;;;0.40;;
41719;SDS011;27405;53.316;-6.294;2024-02-15T11:00:28;2.08;;;0.50;;
41719;SDS011;27405;53.316;-6.294;2024-02-15T11:05:29;1.42;;;0.60;;
41719;SDS011;27405;53.316;-6.294;2024-02-15T11:08:04;0.88;;;0.50;;
41719;SDS011;27405;53.316;-6.294;2024-02-15T11:10:31;1.20;;;0.68;;
41719;SDS011;27405;53.316;-6.294;2024-02-15T11:12:59;2.20;;;0.73;;
41719;SDS011;27405;53.316;-6.294;2024-02-15T11:18:00;0.80;;;0.45;;
41719;SDS011;27405;53.316;-6.294;2024-02-15T11:22:59;1.13;;;0.68;;
41719;SDS011;27405;53.316;-6.294;2024-02-15T11:25:31;0.40;;;0.30;;
41719;SDS011;27405;53.316;-6.294;2024-02-15T11:28:44;0.85;;;0.57;;
41719;SDS011;27405;53.316;-6.294;2024-02-15T11:30:54;1.10;;;0.40;;
41719;SDS011;27405;53.316;-6.294;2024-02-15T11:33:44;1.83;;;0.50;;
41719;SDS011;27405;53.316;-6.294;2024-02-15T11:36:10;3.80;;;0.60;;
41719;SDS011;27405;53.316;-6.294;2024-02-15T11:38:37;2.33;;;1.15;;
41719;SDS011;27405;53.316;-6.294;2024-02-15T11:41:08;3.72;;;0.80;;
41719;SDS011;27405;53.316;-6.294;2024-02-15T11:46:21;1.90;;;0.70;;
41719;SDS011;27405;53.316;-6.294;2024-02-15T11:48:50;2.38;;;0.70;;
41719;SDS011;27405;53.316;-6.294;2024-02-15T11:51:34;3.30;;;0.88;;
41719;SDS011;27405;53.316;-6.294;2024-02-15T11:54:10;3.40;;;0.90;;
41719;SDS011;27405;53.316;-6.294;2024-02-15T11:56:55;5.22;;;1.10;;
41719;SDS011;27405;53.316;-6.294;2024-02-15T11:59:42;2.25;;;1.00;;
41719;SDS011;27405;53.316;-6.294;2024-02-15T12:02:19;1.88;;;1.05;;
41719;SDS011;27405;53.316;-6.294;2024-02-15T12:05:04;2.08;;;0.95;;
41719;SDS011;27405;53.316;-6.294;2024-02-15T12:07:49;1.55;;;1.00;;
41719;SDS011;27405;53.316;-6.294;2024-02-15T12:10:33;6.60;;;1.50;;
41719;SDS011;27405;53.316;-6.294;2024-02-15T12:13:18;1.60;;;1.25;;
41719;SDS011;27405;53.316;-6.294;2024-02-15T12:16:02;4.05;;;1.75;;
41719;SDS011;27405;53.316;-6.294;2024-02-15T12:18:46;2.83;;;1.95;;
41719;SDS011;27405;53.316;-6.294;2024-02-15T12:21:18;2.28;;;1.75;;
41719;SDS011;27405;53.316;-6.294;2024-02-15T12:23:48;2.10;;;1.20;;
41719;SDS011;27405;53.316;-6.294;2024-02-15T12:26:18;1.70;;;1.23;;
41719;SDS011;27405;53.316;-6.294;2024-02-15T12:28:51;2.15;;;0.80;;
41719;SDS011;27405;53.316;-6.294;2024-02-15T12:31:21;1.77;;;1.02;;
41719;SDS011;27405;53.316;-6.294;2024-02-15T12:33:58;3.40;;;1.20;;
41719;SDS011;27405;53.316;-6.294;2024-02-15T12:36:26;2.58;;;1.70;;
41719;SDS011;27405;53.316;-6.294;2024-02-15T12:39:02;2.50;;;1.75;;
41719;SDS011;27405;53.316;-6.294;2024-02-15T12:41:35;2.47;;;1.83;;
41719;SDS011;27405;53.316;-6.294;2024-02-15T12:44:05;2.72;;;2.10;;
41719;SDS011;27405;53.316;-6.294;2024-02-15T12:46:33;4.18;;;2.17;;
41719;SDS011;27405;53.316;-6.294;2024-02-15T12:49:32;2.40;;;2.00;;
41719;SDS011;27405;53.316;-6.294;2024-02-15T12:51:51;3.08;;;2.55;;
41719;SDS011;27405;53.316;-6.294;2024-02-15T12:54:21;3.10;;;2.58;;
41719;SDS011;27405;53.316;-6.294;2024-02-15T12:56:47;2.45;;;2.25;;
41719;SDS011;27405;53.316;-6.294;2024-02-15T12:59:19;3.03;;;2.10;;
41719;SDS011;27405;53.316;-6.294;2024-02-15T13:01:45;3.65;;;2.30;;
41719;SDS011;27405;53.316;-6.294;2024-02-15T13:04:23;5.55;;;2.40;;
41719;SDS011;27405;53.316;-6.294;2024-02-15T13:06:53;2.75;;;1.88;;
41719;SDS011;27405;53.316;-6.294;2024-02-15T13:09:18;2.50;;;1.25;;
41719;SDS011;27405;53.316;-6.294;2024-02-15T13:11:47;1.90;;;1.42;;
41719;SDS011;27405;53.316;-6.294;2024-02-15T13:14:15;3.85;;;1.42;;
41719;SDS011;27405;53.316;-6.294;2024-02-15T13:16:40;3.00;;;1.50;;
41719;SDS011;27405;53.316;-6.294;2024-02-15T13:19:08;3.60;;;2.42;;
41719;SDS011;27405;53.316;-6.294;2024-02-15T13:21:33;3.90;;;2.50;;
41719;SDS011;27405;53.316;-6.294;2024-02-15T13:23:59;4.93;;;2.00;;
41719;SDS011;27405;53.316;-6.294;2024-02-15T13:26:30;4.55;;;2.25;;
41719;SDS011;27405;53.316;-6.294;2024-02-15T13:28:57;3.85;;;1.58;;
41719;SDS011;27405;53.316;-6.294;2024-02-15T13:31:23;3.50;;;1.42;;
41719;SDS011;27405;53.316;-6.294;2024-02-15T13:33:49;4.28;;;1.48;;
41719;SDS011;27405;53.316;-6.294;2024-02-15T13:36:14;4.28;;;1.20;;
41719;SDS011;27405;53.316;-6.294;2024-02-15T13:38:40;2.25;;;1.10;;
41719;SDS011;27405;53.316;-6.294;2024-02-15T13:41:07;3.47;;;1.20;;
41719;SDS011;27405;53.316;-6.294;2024-02-15T13:43:33;2.75;;;1.20;;
41719;SDS011;27405;53.316;-6.294;2024-02-15T13:45:59;3.92;;;1.75;;
41719;SDS011;27405;53.316;-6.294;2024-02-15T13:48:27;3.80;;;1.52;;
41719;SDS011;27405;53.316;-6.294;2024-02-15T13:50:55;7.40;;;1.45;;
41719;SDS011;27405;53.316;-6.294;2024-02-15T13:53:21;2.60;;;1.00;;
41719;SDS011;27405;53.316;-6.294;2024-02-15T13:55:47;4.30;;;1.40;;
41719;SDS011;27405;53.316;-6.294;2024-02-15T13:58:13;3.53;;;1.08;;
41719;SDS011;27405;53.316;-6.294;2024-02-15T14:00:39;4.88;;;1.48;;
41719;SDS011;27405;53.316;-6.294;2024-02-15T14:03:07;5.78;;;1.55;;
41719;SDS011;27405;53.316;-6.294;2024-02-15T14:05:35;6.70;;;1.40;;
41719;SDS011;27405;53.316;-6.294;2024-02-15T14:08:04;7.63;;;1.58;;
41719;SDS011;27405;53.316;-6.294;2024-02-15T14:10:31;6.22;;;1.52;;
41719;SDS011;27405;53.316;-6.294;2024-02-15T14:12:58;5.53;;;1.60;;
41719;SDS011;27405;53.316;-6.294;2024-02-15T14:15:25;5.75;;;1.40;;
41719;SDS011;27405;53.316;-6.294;2024-02-15T14:17:51;5.50;;;1.50;;
41719;SDS011;27405;53.316;-6.294;2024-02-15T14:20:17;10.32;;;1.50;;
41719;SDS011;27405;53.316;-6.294;2024-02-15T14:22:44;5.47;;;1.52;;
41719;SDS011;27405;53.316;-6.294;2024-02-15T14:25:14;5.53;;;1.40;;
41719;SDS011;27405;53.316;-6.294;2024-02-15T14:27:40;6.20;;;1.77;;
41719;SDS011;27405;53.316;-6.294;2024-02-15T14:30:07;6.00;;;1.80;;
41719;SDS011;27405;53.316;-6.294;2024-02-15T14:32:52;6.85;;;1.75;;
41719;SDS011;27405;53.316;-6.294;2024-02-15T14:35:34;7.70;;;1.92;;
41719;SDS011;27405;53.316;-6.294;2024-02-15T14:40:39;7.57;;;2.22;;
41719;SDS011;27405;53.316;-6.294;2024-02-15T14:43:22;9.20;;;1.70;;
41719;SDS011;27405;53.316;-6.294;2024-02-15T14:45:50;6.97;;;2.00;;
41719;SDS011;27405;53.316;-6.294;2024-02-15T14:48:16;5.75;;;1.70;;
41719;SDS011;27405;53.316;-6.294;2024-02-15T14:53:12;5.35;;;2.10;;
41719;SDS011;27405;53.316;-6.294;2024-02-15T14:55:38;6.13;;;2.40;;
41719;SDS011;27405;53.316;-6.294;2024-02-15T14:58:04;6.35;;;1.98;;
41719;SDS011;27405;53.316;-6.294;2024-02-15T15:00:33;7.82;;;2.50;;
41719;SDS011;27405;53.316;-6.294;2024-02-15T15:03:07;5.75;;;2.67;;
41719;SDS011;27405;53.316;-6.294;2024-02-15T15:05:32;4.60;;;2.47;;
41719;SDS011;27405;53.316;-6.294;2024-02-15T15:08:17;6.38;;;2.70;;